sensor_id;sensor_type;location;lat;lon;timestamp;P1;durP1;ratioP1;P2;durP2;ratioP2
71639;SDS011;60912;48.968;10.124;2023-12-07T00:00:22;18.37;;;10.37;;
71639;SDS011;60912;48.968;10.124;2023-12-07T00:02:47;18.05;;;10.25;;
71639;SDS011;60912;48.968;10.124;2023-12-07T00:05:12;17.37;;;9.77;;
71639;SDS011;60912;48.968;10.124;2023-12-07T00:07:38;22.53;;;10.73;;
71639;SDS011;60912;48.968;10.124;2023-12-07T00:10:03;17.37;;;10.00;;
71639;SDS011;60912;48.968;10.124;2023-12-07T00:12:29;16.80;;;9.95;;
71639;SDS011;60912;48.968;10.124;2023-12-07T00:14:54;16.50;;;10.03;;
71639;SDS011;60912;48.968;10.124;2023-12-07T00:17:20;19.00;;;10.57;;
71639;SDS011;60912;48.968;10.124;2023-12-07T00:19:45;22.47;;;11.27;;
71639;SDS011;60912;48.968;10.124;2023-12-07T00:22:10;24.17;;;11.40;;
71639;SDS011;60912;48.968;10.124;2023-12-07T00:24:36;25.93;;;12.93;;
71639;SDS011;60912;48.968;10.124;2023-12-07T00:27:01;21.33;;;11.30;;
71639;SDS011;60912;48.968;10.124;2023-12-07T00:29:26;20.63;;;11.05;;
71639;SDS011;60912;48.968;10.124;2023-12-07T00:31:55;17.63;;;9.87;;
71639;SDS011;60912;48.968;10.124;2023-12-07T00:34:20;15.93;;;9.70;;
71639;SDS011;60912;48.968;10.124;2023-12-07T00:36:45;18.05;;;10.95;;
71639;SDS011;60912;48.968;10.124;2023-12-07T00:39:11;19.07;;;9.47;;
71639;SDS011;60912;48.968;10.124;2023-12-07T00:41:37;17.70;;;10.25;;
71639;SDS011;60912;48.968;10.124;2023-12-07T00:44:02;17.60;;;10.00;;
71639;SDS011;60912;48.968;10.124;2023-12-07T00:46:27;17.03;;;9.43;;
71639;SDS011;60912;48.968;10.124;2023-12-07T00:48:53;17.13;;;9.53;;
71639;SDS011;60912;48.968;10.124;2023-12-07T00:51:18;17.33;;;9.00;;
71639;SDS011;60912;48.968;10.124;2023-12-07T00:53:43;17.37;;;8.97;;
71639;SDS011;60912;48.968;10.124;2023-12-07T00:56:09;16.73;;;9.43;;
71639;SDS011;60912;48.968;10.124;2023-12-07T00:58:34;16.43;;;9.23;;
71639;SDS011;60912;48.968;10.124;2023-12-07T01:01:00;15.25;;;8.85;;
71639;SDS011;60912;48.968;10.124;2023-12-07T01:03:26;14.87;;;9.33;;
71639;SDS011;60912;48.968;10.124;2023-12-07T01:05:51;19.70;;;9.80;;
71639;SDS011;60912;48.968;10.124;2023-12-07T01:08:16;18.63;;;9.23;;
71639;SDS011;60912;48.968;10.124;2023-12-07T01:10:42;16.30;;;9.33;;
71639;SDS011;60912;48.968;10.124;2023-12-07T01:13:07;16.60;;;9.30;;
71639;SDS011;60912;48.968;10.124;2023-12-07T01:15:32;17.53;;;9.77;;
71639;SDS011;60912;48.968;10.124;2023-12-07T01:17:58;18.23;;;9.90;;
71639;SDS011;60912;48.968;10.124;2023-12-07T01:20:23;19.20;;;10.10;;
71639;SDS011;60912;48.968;10.124;2023-12-07T01:22:48;17.67;;;10.13;;
71639;SDS011;60912;48.968;10.124;2023-12-07T01:25:14;18.10;;;9.97;;
71639;SDS011;60912;48.968;10.124;2023-12-07T01:27:45;18.90;;;9.65;;
71639;SDS011;60912;48.968;10.124;2023-12-07T01:30:10;16.95;;;9.38;;
71639;SDS011;60912;48.968;10.124;2023-12-07T01:32:35;18.07;;;10.33;;
71639;SDS011;60912;48.968;10.124;2023-12-07T01:35:01;18.77;;;9.83;;
71639;SDS011;60912;48.968;10.124;2023-12-07T01:37:27;16.90;;;9.63;;
71639;SDS011;60912;48.968;10.124;2023-12-07T01:39:54;17.07;;;9.90;;
71639;SDS011;60912;48.968;10.124;2023-12-07T01:42:19;16.80;;;10.00;;
71639;SDS011;60912;48.968;10.124;2023-12-07T01:44:45;16.83;;;9.73;;
71639;SDS011;60912;48.968;10.124;2023-12-07T01:47:10;18.93;;;9.83;;
71639;SDS011;60912;48.968;10.124;2023-12-07T01:49:36;17.77;;;10.63;;
71639;SDS011;60912;48.968;10.124;2023-12-07T01:52:02;16.55;;;9.75;;
71639;SDS011;60912;48.968;10.124;2023-12-07T01:54:28;17.30;;;10.18;;
71639;SDS011;60912;48.968;10.124;2023-12-07T01:56:54;20.92;;;10.00;;
71639;SDS011;60912;48.968;10.124;2023-12-07T01:59:20;19.57;;;10.23;;
71639;SDS011;60912;48.968;10.124;2023-12-07T02:01:46;18.08;;;10.32;;
71639;SDS011;60912;48.968;10.124;2023-12-07T02:04:11;17.10;;;10.07;;
71639;SDS011;60912;48.968;10.124;2023-12-07T02:06:37;17.07;;;9.80;;
71639;SDS011;60912;48.968;10.124;2023-12-07T02:09:02;20.75;;;9.63;;
71639;SDS011;60912;48.968;10.124;2023-12-07T02:11:28;17.53;;;10.03;;
71639;SDS011;60912;48.968;10.124;2023-12-07T02:13:53;17.90;;;10.40;;
71639;SDS011;60912;48.968;10.124;2023-12-07T02:16:42;20.65;;;11.00;;
71639;SDS011;60912;48.968;10.124;2023-12-07T02:19:54;18.90;;;10.07;;
71639;SDS011;60912;48.968;10.124;2023-12-07T02:22:39;16.83;;;10.15;;
71639;SDS011;60912;48.968;10.124;2023-12-07T02:25:09;17.13;;;10.10;;
71639;SDS011;60912;48.968;10.124;2023-12-07T02:27:44;16.88;;;10.05;;
71639;SDS011;60912;48.968;10.124;2023-12-07T02:30:13;18.85;;;10.50;;
71639;SDS011;60912;48.968;10.124;2023-12-07T02:32:40;20.52;;;10.68;;
71639;SDS011;60912;48.968;10.124;2023-12-07T02:35:07;18.67;;;10.13;;
71639;SDS011;60912;48.968;10.124;2023-12-07T02:37:44;21.23;;;10.23;;
71639;SDS011;60912;48.968;10.124;2023-12-07T02:40:21;20.45;;;10.63;;
71639;SDS011;60912;48.968;10.124;2023-12-07T02:42:48;20.08;;;10.38;;
71639;SDS011;60912;48.968;10.124;2023-12-07T02:45:15;19.02;;;10.18;;
71639;SDS011;60912;48.968;10.124;2023-12-07T02:47:40;20.27;;;10.17;;
71639;SDS011;60912;48.968;10.124;2023-12-07T02:50:08;18.60;;;10.30;;
71639;SDS011;60912;48.968;10.124;2023-12-07T02:52:34;18.52;;;10.60;;
71639;SDS011;60912;48.968;10.124;2023-12-07T02:55:00;18.85;;;10.35;;
71639;SDS011;60912;48.968;10.124;2023-12-07T02:57:25;19.93;;;11.03;;
71639;SDS011;60912;48.968;10.124;2023-12-07T02:59:51;18.27;;;10.50;;
71639;SDS011;60912;48.968;10.124;2023-12-07T03:02:16;19.53;;;10.83;;
71639;SDS011;60912;48.968;10.124;2023-12-07T03:04:41;18.67;;;10.13;;
71639;SDS011;60912;48.968;10.124;2023-12-07T03:07:07;19.80;;;10.10;;
71639;SDS011;60912;48.968;10.124;2023-12-07T03:09:32;18.27;;;10.67;;
71639;SDS011;60912;48.968;10.124;2023-12-07T03:11:57;18.50;;;10.40;;
71639;SDS011;60912;48.968;10.124;2023-12-07T03:14:23;18.27;;;10.60;;
71639;SDS011;60912;48.968;10.124;2023-12-07T03:16:48;18.03;;;9.87;;
71639;SDS011;60912;48.968;10.124;2023-12-07T03:19:14;18.67;;;10.07;;
71639;SDS011;60912;48.968;10.124;2023-12-07T03:21:40;17.10;;;10.20;;
71639;SDS011;60912;48.968;10.124;2023-12-07T03:24:06;16.58;;;9.35;;
71639;SDS011;60912;48.968;10.124;2023-12-07T03:26:33;17.30;;;9.33;;
71639;SDS011;60912;48.968;10.124;2023-12-07T03:28:58;17.77;;;10.07;;
71639;SDS011;60912;48.968;10.124;2023-12-07T03:31:24;23.80;;;10.73;;
71639;SDS011;60912;48.968;10.124;2023-12-07T03:33:49;19.63;;;10.50;;
71639;SDS011;60912;48.968;10.124;2023-12-07T03:36:14;19.27;;;10.37;;
71639;SDS011;60912;48.968;10.124;2023-12-07T03:38:40;18.97;;;10.93;;
71639;SDS011;60912;48.968;10.124;2023-12-07T03:41:05;19.20;;;10.27;;
71639;SDS011;60912;48.968;10.124;2023-12-07T03:43:30;18.47;;;10.77;;
71639;SDS011;60912;48.968;10.124;2023-12-07T03:45:56;19.40;;;10.43;;
71639;SDS011;60912;48.968;10.124;2023-12-07T03:48:21;19.03;;;10.17;;
71639;SDS011;60912;48.968;10.124;2023-12-07T03:50:46;20.33;;;9.97;;
71639;SDS011;60912;48.968;10.124;2023-12-07T03:53:12;17.83;;;9.70;;
71639;SDS011;60912;48.968;10.124;2023-12-07T03:55:37;17.17;;;10.13;;
71639;SDS011;60912;48.968;10.124;2023-12-07T03:58:03;17.58;;;10.35;;
71639;SDS011;60912;48.968;10.124;2023-12-07T04:00:29;18.65;;;9.93;;
71639;SDS011;60912;48.968;10.124;2023-12-07T04:02:56;17.63;;;9.93;;
71639;SDS011;60912;48.968;10.124;2023-12-07T04:05:22;17.70;;;9.97;;
71639;SDS011;60912;48.968;10.124;2023-12-07T04:07:47;18.07;;;10.40;;
71639;SDS011;60912;48.968;10.124;2023-12-07T04:10:12;18.50;;;10.53;;
71639;SDS011;60912;48.968;10.124;2023-12-07T04:12:38;16.40;;;9.93;;
71639;SDS011;60912;48.968;10.124;2023-12-07T04:15:03;18.97;;;9.97;;
71639;SDS011;60912;48.968;10.124;2023-12-07T04:17:29;20.27;;;9.88;;
71639;SDS011;60912;48.968;10.124;2023-12-07T04:19:54;18.57;;;10.50;;
71639;SDS011;60912;48.968;10.124;2023-12-07T04:22:20;18.37;;;9.93;;
71639;SDS011;60912;48.968;10.124;2023-12-07T04:24:45;18.13;;;9.90;;
71639;SDS011;60912;48.968;10.124;2023-12-07T04:27:10;16.40;;;9.97;;
71639;SDS011;60912;48.968;10.124;2023-12-07T04:29:36;20.05;;;10.25;;
71639;SDS011;60912;48.968;10.124;2023-12-07T04:32:01;17.53;;;10.00;;
71639;SDS011;60912;48.968;10.124;2023-12-07T04:34:27;17.63;;;10.67;;
71639;SDS011;60912;48.968;10.124;2023-12-07T04:36:52;17.35;;;9.55;;
71639;SDS011;60912;48.968;10.124;2023-12-07T04:39:18;16.67;;;10.00;;
71639;SDS011;60912;48.968;10.124;2023-12-07T04:41:43;17.33;;;10.50;;
71639;SDS011;60912;48.968;10.124;2023-12-07T04:44:09;22.80;;;10.67;;
71639;SDS011;60912;48.968;10.124;2023-12-07T04:46:34;19.55;;;10.50;;
71639;SDS011;60912;48.968;10.124;2023-12-07T04:49:00;17.37;;;10.17;;
71639;SDS011;60912;48.968;10.124;2023-12-07T04:51:26;18.30;;;10.25;;
71639;SDS011;60912;48.968;10.124;2023-12-07T04:53:51;18.80;;;10.23;;
71639;SDS011;60912;48.968;10.124;2023-12-07T04:56:16;17.97;;;10.43;;
71639;SDS011;60912;48.968;10.124;2023-12-07T04:58:42;19.60;;;11.27;;
71639;SDS011;60912;48.968;10.124;2023-12-07T05:01:07;18.53;;;10.67;;
71639;SDS011;60912;48.968;10.124;2023-12-07T05:03:32;18.30;;;10.73;;
71639;SDS011;60912;48.968;10.124;2023-12-07T05:05:58;18.87;;;10.83;;
71639;SDS011;60912;48.968;10.124;2023-12-07T05:08:23;19.08;;;10.90;;
71639;SDS011;60912;48.968;10.124;2023-12-07T05:10:48;18.50;;;10.70;;
71639;SDS011;60912;48.968;10.124;2023-12-07T05:13:14;20.23;;;11.17;;
71639;SDS011;60912;48.968;10.124;2023-12-07T05:15:45;19.17;;;10.67;;
71639;SDS011;60912;48.968;10.124;2023-12-07T05:18:11;16.33;;;9.75;;
71639;SDS011;60912;48.968;10.124;2023-12-07T05:20:37;18.47;;;10.73;;
71639;SDS011;60912;48.968;10.124;2023-12-07T05:23:04;20.23;;;11.48;;
71639;SDS011;60912;48.968;10.124;2023-12-07T05:25:30;19.88;;;11.05;;
71639;SDS011;60912;48.968;10.124;2023-12-07T05:27:55;17.90;;;11.10;;
71639;SDS011;60912;48.968;10.124;2023-12-07T05:30:20;18.20;;;11.03;;
71639;SDS011;60912;48.968;10.124;2023-12-07T05:32:46;18.07;;;10.40;;
71639;SDS011;60912;48.968;10.124;2023-12-07T05:35:11;22.63;;;12.30;;
71639;SDS011;60912;48.968;10.124;2023-12-07T05:37:36;21.73;;;12.13;;
71639;SDS011;60912;48.968;10.124;2023-12-07T05:40:02;22.87;;;12.53;;
71639;SDS011;60912;48.968;10.124;2023-12-07T05:42:27;18.33;;;11.73;;
71639;SDS011;60912;48.968;10.124;2023-12-07T05:44:53;23.83;;;11.70;;
71639;SDS011;60912;48.968;10.124;2023-12-07T05:47:18;24.60;;;13.25;;
71639;SDS011;60912;48.968;10.124;2023-12-07T05:49:44;22.27;;;13.33;;
71639;SDS011;60912;48.968;10.124;2023-12-07T05:52:09;24.07;;;13.13;;
71639;SDS011;60912;48.968;10.124;2023-12-07T05:54:34;20.43;;;11.67;;
71639;SDS011;60912;48.968;10.124;2023-12-07T05:57:00;20.10;;;11.90;;
71639;SDS011;60912;48.968;10.124;2023-12-07T05:59:25;34.83;;;15.80;;
71639;SDS011;60912;48.968;10.124;2023-12-07T06:01:51;33.20;;;15.73;;
71639;SDS011;60912;48.968;10.124;2023-12-07T06:04:19;27.27;;;14.57;;
71639;SDS011;60912;48.968;10.124;2023-12-07T06:06:45;33.63;;;15.77;;
71639;SDS011;60912;48.968;10.124;2023-12-07T06:09:10;22.45;;;12.55;;
71639;SDS011;60912;48.968;10.124;2023-12-07T06:11:36;26.17;;;12.50;;
71639;SDS011;60912;48.968;10.124;2023-12-07T06:14:01;22.42;;;12.63;;
71639;SDS011;60912;48.968;10.124;2023-12-07T06:16:27;19.07;;;11.63;;
71639;SDS011;60912;48.968;10.124;2023-12-07T06:18:53;22.08;;;12.07;;
71639;SDS011;60912;48.968;10.124;2023-12-07T06:21:18;21.63;;;12.47;;
71639;SDS011;60912;48.968;10.124;2023-12-07T06:23:43;21.67;;;12.80;;
71639;SDS011;60912;48.968;10.124;2023-12-07T06:26:11;23.10;;;12.25;;
71639;SDS011;60912;48.968;10.124;2023-12-07T06:28:37;22.07;;;12.57;;
71639;SDS011;60912;48.968;10.124;2023-12-07T06:31:05;20.77;;;12.23;;
71639;SDS011;60912;48.968;10.124;2023-12-07T06:33:32;24.48;;;12.55;;
71639;SDS011;60912;48.968;10.124;2023-12-07T06:35:57;23.43;;;14.00;;
71639;SDS011;60912;48.968;10.124;2023-12-07T06:38:22;25.48;;;14.02;;
71639;SDS011;60912;48.968;10.124;2023-12-07T06:40:48;23.50;;;12.93;;
71639;SDS011;60912;48.968;10.124;2023-12-07T06:43:13;26.57;;;13.90;;
71639;SDS011;60912;48.968;10.124;2023-12-07T06:45:39;24.30;;;12.70;;
71639;SDS011;60912;48.968;10.124;2023-12-07T06:48:05;23.33;;;13.57;;
71639;SDS011;60912;48.968;10.124;2023-12-07T06:50:30;23.53;;;13.40;;
71639;SDS011;60912;48.968;10.124;2023-12-07T06:52:56;21.97;;;12.30;;
71639;SDS011;60912;48.968;10.124;2023-12-07T06:55:21;22.15;;;12.07;;
71639;SDS011;60912;48.968;10.124;2023-12-07T06:57:47;20.13;;;11.63;;
71639;SDS011;60912;48.968;10.124;2023-12-07T07:00:13;21.65;;;12.35;;
71639;SDS011;60912;48.968;10.124;2023-12-07T07:02:39;19.53;;;11.40;;
71639;SDS011;60912;48.968;10.124;2023-12-07T07:05:04;19.35;;;10.70;;
71639;SDS011;60912;48.968;10.124;2023-12-07T07:07:30;19.43;;;11.37;;
71639;SDS011;60912;48.968;10.124;2023-12-07T07:09:56;20.30;;;10.88;;
71639;SDS011;60912;48.968;10.124;2023-12-07T07:12:22;17.07;;;10.67;;
71639;SDS011;60912;48.968;10.124;2023-12-07T07:14:47;16.30;;;9.82;;
71639;SDS011;60912;48.968;10.124;2023-12-07T07:17:13;16.87;;;9.77;;
71639;SDS011;60912;48.968;10.124;2023-12-07T07:19:39;17.63;;;10.10;;
71639;SDS011;60912;48.968;10.124;2023-12-07T07:22:04;18.27;;;10.30;;
71639;SDS011;60912;48.968;10.124;2023-12-07T07:24:30;18.07;;;9.83;;
71639;SDS011;60912;48.968;10.124;2023-12-07T07:26:55;17.07;;;10.10;;
71639;SDS011;60912;48.968;10.124;2023-12-07T07:29:20;15.90;;;9.65;;
71639;SDS011;60912;48.968;10.124;2023-12-07T07:31:46;20.47;;;10.90;;
71639;SDS011;60912;48.968;10.124;2023-12-07T07:34:11;19.27;;;11.07;;
71639;SDS011;60912;48.968;10.124;2023-12-07T07:36:36;19.00;;;11.03;;
71639;SDS011;60912;48.968;10.124;2023-12-07T07:39:02;17.47;;;10.93;;
71639;SDS011;60912;48.968;10.124;2023-12-07T07:41:29;19.33;;;11.43;;
71639;SDS011;60912;48.968;10.124;2023-12-07T07:43:54;20.77;;;12.40;;
71639;SDS011;60912;48.968;10.124;2023-12-07T07:46:20;22.27;;;13.23;;
71639;SDS011;60912;48.968;10.124;2023-12-07T07:48:45;25.53;;;17.33;;
71639;SDS011;60912;48.968;10.124;2023-12-07T07:51:11;19.23;;;13.47;;
71639;SDS011;60912;48.968;10.124;2023-12-07T07:53:36;17.93;;;11.77;;
71639;SDS011;60912;48.968;10.124;2023-12-07T07:56:02;17.73;;;11.53;;
71639;SDS011;60912;48.968;10.124;2023-12-07T07:58:27;28.73;;;13.90;;
71639;SDS011;60912;48.968;10.124;2023-12-07T08:00:52;24.83;;;16.67;;
71639;SDS011;60912;48.968;10.124;2023-12-07T08:03:18;25.27;;;16.10;;
71639;SDS011;60912;48.968;10.124;2023-12-07T08:05:43;22.87;;;14.87;;
71639;SDS011;60912;48.968;10.124;2023-12-07T08:08:08;24.83;;;14.90;;
71639;SDS011;60912;48.968;10.124;2023-12-07T08:10:34;24.90;;;15.20;;
71639;SDS011;60912;48.968;10.124;2023-12-07T08:12:59;27.13;;;16.60;;
71639;SDS011;60912;48.968;10.124;2023-12-07T08:15:24;27.20;;;16.23;;
71639;SDS011;60912;48.968;10.124;2023-12-07T08:17:50;21.23;;;13.47;;
71639;SDS011;60912;48.968;10.124;2023-12-07T08:20:16;21.10;;;12.43;;
71639;SDS011;60912;48.968;10.124;2023-12-07T08:22:41;23.75;;;13.82;;
71639;SDS011;60912;48.968;10.124;2023-12-07T08:25:06;23.57;;;14.20;;
71639;SDS011;60912;48.968;10.124;2023-12-07T08:27:34;23.25;;;14.07;;
71639;SDS011;60912;48.968;10.124;2023-12-07T08:30:01;25.27;;;14.35;;
71639;SDS011;60912;48.968;10.124;2023-12-07T08:32:27;19.80;;;12.57;;
71639;SDS011;60912;48.968;10.124;2023-12-07T08:34:52;23.42;;;13.98;;
71639;SDS011;60912;48.968;10.124;2023-12-07T08:37:18;26.37;;;14.83;;
71639;SDS011;60912;48.968;10.124;2023-12-07T08:39:43;25.43;;;14.23;;
71639;SDS011;60912;48.968;10.124;2023-12-07T08:42:09;23.83;;;13.97;;
71639;SDS011;60912;48.968;10.124;2023-12-07T08:44:34;21.65;;;12.88;;
71639;SDS011;60912;48.968;10.124;2023-12-07T08:49:35;22.15;;;12.55;;
71639;SDS011;60912;48.968;10.124;2023-12-07T08:52:01;21.20;;;13.17;;
71639;SDS011;60912;48.968;10.124;2023-12-07T08:54:27;22.38;;;13.43;;
71639;SDS011;60912;48.968;10.124;2023-12-07T08:56:52;24.23;;;13.13;;
71639;SDS011;60912;48.968;10.124;2023-12-07T08:59:18;21.10;;;13.10;;
71639;SDS011;60912;48.968;10.124;2023-12-07T09:01:43;25.53;;;14.60;;
71639;SDS011;60912;48.968;10.124;2023-12-07T09:04:09;23.67;;;14.13;;
71639;SDS011;60912;48.968;10.124;2023-12-07T09:06:34;25.33;;;12.50;;
71639;SDS011;60912;48.968;10.124;2023-12-07T09:09:01;20.42;;;12.23;;
71639;SDS011;60912;48.968;10.124;2023-12-07T09:11:27;21.17;;;11.93;;
71639;SDS011;60912;48.968;10.124;2023-12-07T09:13:52;21.70;;;12.02;;
71639;SDS011;60912;48.968;10.124;2023-12-07T09:16:18;19.63;;;11.43;;
71639;SDS011;60912;48.968;10.124;2023-12-07T09:18:43;19.03;;;11.67;;
71639;SDS011;60912;48.968;10.124;2023-12-07T09:21:11;20.02;;;10.95;;
71639;SDS011;60912;48.968;10.124;2023-12-07T09:23:36;18.47;;;10.73;;
71639;SDS011;60912;48.968;10.124;2023-12-07T09:26:02;19.95;;;10.45;;
71639;SDS011;60912;48.968;10.124;2023-12-07T09:28:28;17.23;;;10.32;;
71639;SDS011;60912;48.968;10.124;2023-12-07T09:30:54;18.30;;;11.10;;
71639;SDS011;60912;48.968;10.124;2023-12-07T09:33:19;19.03;;;11.00;;
71639;SDS011;60912;48.968;10.124;2023-12-07T09:35:44;21.73;;;11.50;;
71639;SDS011;60912;48.968;10.124;2023-12-07T09:38:10;19.63;;;10.80;;
71639;SDS011;60912;48.968;10.124;2023-12-07T09:40:35;20.45;;;11.85;;
71639;SDS011;60912;48.968;10.124;2023-12-07T09:43:01;19.53;;;11.07;;
71639;SDS011;60912;48.968;10.124;2023-12-07T09:45:26;23.40;;;11.87;;
71639;SDS011;60912;48.968;10.124;2023-12-07T09:47:52;18.10;;;11.30;;
71639;SDS011;60912;48.968;10.124;2023-12-07T09:50:23;19.93;;;10.17;;
71639;SDS011;60912;48.968;10.124;2023-12-07T09:52:56;17.10;;;10.70;;
71639;SDS011;60912;48.968;10.124;2023-12-07T09:55:22;18.13;;;11.32;;
71639;SDS011;60912;48.968;10.124;2023-12-07T09:57:52;19.88;;;10.80;;
71639;SDS011;60912;48.968;10.124;2023-12-07T10:00:19;18.48;;;10.35;;
71639;SDS011;60912;48.968;10.124;2023-12-07T10:02:45;15.93;;;10.17;;
71639;SDS011;60912;48.968;10.124;2023-12-07T10:05:14;16.63;;;10.32;;
71639;SDS011;60912;48.968;10.124;2023-12-07T10:07:42;17.33;;;10.10;;
71639;SDS011;60912;48.968;10.124;2023-12-07T10:10:09;18.23;;;10.67;;
71639;SDS011;60912;48.968;10.124;2023-12-07T10:12:44;15.43;;;9.95;;
71639;SDS011;60912;48.968;10.124;2023-12-07T10:15:11;17.95;;;10.32;;
71639;SDS011;60912;48.968;10.124;2023-12-07T10:20:36;16.40;;;10.23;;
71639;SDS011;60912;48.968;10.124;2023-12-07T10:25:31;16.23;;;10.20;;
71639;SDS011;60912;48.968;10.124;2023-12-07T10:27:57;16.30;;;10.07;;
71639;SDS011;60912;48.968;10.124;2023-12-07T10:30:23;19.00;;;9.77;;
71639;SDS011;60912;48.968;10.124;2023-12-07T10:32:51;16.55;;;10.32;;
71639;SDS011;60912;48.968;10.124;2023-12-07T10:35:17;16.55;;;10.35;;
71639;SDS011;60912;48.968;10.124;2023-12-07T10:37:43;14.38;;;9.07;;
71639;SDS011;60912;48.968;10.124;2023-12-07T10:40:09;19.90;;;10.87;;
71639;SDS011;60912;48.968;10.124;2023-12-07T10:42:35;15.73;;;9.23;;
71639;SDS011;60912;48.968;10.124;2023-12-07T10:45:05;21.53;;;9.33;;
71639;SDS011;60912;48.968;10.124;2023-12-07T10:47:35;12.73;;;8.57;;
71639;SDS011;60912;48.968;10.124;2023-12-07T10:50:05;13.18;;;8.57;;
71639;SDS011;60912;48.968;10.124;2023-12-07T10:52:36;15.82;;;9.70;;
71639;SDS011;60912;48.968;10.124;2023-12-07T10:55:07;15.45;;;9.18;;
71639;SDS011;60912;48.968;10.124;2023-12-07T10:57:38;15.50;;;9.70;;
71639;SDS011;60912;48.968;10.124;2023-12-07T11:00:05;18.85;;;11.77;;
71639;SDS011;60912;48.968;10.124;2023-12-07T11:02:32;18.63;;;10.15;;
71639;SDS011;60912;48.968;10.124;2023-12-07T11:04:59;23.77;;;13.57;;
71639;SDS011;60912;48.968;10.124;2023-12-07T11:07:27;20.35;;;11.18;;
71639;SDS011;60912;48.968;10.124;2023-12-07T11:15:57;19.33;;;9.52;;
71639;SDS011;60912;48.968;10.124;2023-12-07T11:18:25;19.87;;;10.50;;
71639;SDS011;60912;48.968;10.124;2023-12-07T11:20:52;18.15;;;11.77;;
71639;SDS011;60912;48.968;10.124;2023-12-07T11:23:18;18.08;;;9.93;;
71639;SDS011;60912;48.968;10.124;2023-12-07T11:25:45;17.77;;;10.98;;
71639;SDS011;60912;48.968;10.124;2023-12-07T11:28:11;17.30;;;9.82;;
71639;SDS011;60912;48.968;10.124;2023-12-07T11:30:38;16.93;;;10.03;;
71639;SDS011;60912;48.968;10.124;2023-12-07T11:33:06;17.67;;;10.18;;
71639;SDS011;60912;48.968;10.124;2023-12-07T11:35:32;18.88;;;8.88;;
71639;SDS011;60912;48.968;10.124;2023-12-07T11:38:02;14.02;;;8.57;;
71639;SDS011;60912;48.968;10.124;2023-12-07T11:40:29;15.70;;;8.95;;
71639;SDS011;60912;48.968;10.124;2023-12-07T11:42:56;16.27;;;9.57;;
71639;SDS011;60912;48.968;10.124;2023-12-07T11:48:14;17.63;;;10.87;;
71639;SDS011;60912;48.968;10.124;2023-12-07T11:50:59;16.23;;;10.07;;
71639;SDS011;60912;48.968;10.124;2023-12-07T11:53:31;17.27;;;9.80;;
71639;SDS011;60912;48.968;10.124;2023-12-07T11:55:58;19.10;;;11.32;;
71639;SDS011;60912;48.968;10.124;2023-12-07T11:58:28;17.50;;;10.27;;
71639;SDS011;60912;48.968;10.124;2023-12-07T12:00:55;16.60;;;9.83;;
71639;SDS011;60912;48.968;10.124;2023-12-07T12:03:21;17.42;;;10.32;;
71639;SDS011;60912;48.968;10.124;2023-12-07T12:05:54;16.77;;;10.00;;
71639;SDS011;60912;48.968;10.124;2023-12-07T12:08:23;15.35;;;10.05;;
71639;SDS011;60912;48.968;10.124;2023-12-07T12:10:54;19.23;;;9.57;;
71639;SDS011;60912;48.968;10.124;2023-12-07T12:13:33;18.63;;;9.37;;
71639;SDS011;60912;48.968;10.124;2023-12-07T12:16:00;14.50;;;9.45;;
71639;SDS011;60912;48.968;10.124;2023-12-07T12:18:25;17.37;;;9.40;;
71639;SDS011;60912;48.968;10.124;2023-12-07T12:20:52;18.48;;;11.45;;
71639;SDS011;60912;48.968;10.124;2023-12-07T12:23:18;17.05;;;9.80;;
71639;SDS011;60912;48.968;10.124;2023-12-07T12:25:43;16.17;;;9.90;;
71639;SDS011;60912;48.968;10.124;2023-12-07T12:28:09;17.45;;;10.70;;
71639;SDS011;60912;48.968;10.124;2023-12-07T12:30:35;17.98;;;10.52;;
71639;SDS011;60912;48.968;10.124;2023-12-07T12:33:01;19.40;;;13.57;;
71639;SDS011;60912;48.968;10.124;2023-12-07T12:35:27;17.52;;;11.25;;
71639;SDS011;60912;48.968;10.124;2023-12-07T12:37:53;18.38;;;10.60;;
71639;SDS011;60912;48.968;10.124;2023-12-07T12:40:22;15.38;;;9.85;;
71639;SDS011;60912;48.968;10.124;2023-12-07T12:42:49;16.27;;;10.53;;
71639;SDS011;60912;48.968;10.124;2023-12-07T12:45:16;21.25;;;11.68;;
71639;SDS011;60912;48.968;10.124;2023-12-07T12:47:43;20.05;;;11.05;;
71639;SDS011;60912;48.968;10.124;2023-12-07T12:50:10;21.55;;;12.73;;
71639;SDS011;60912;48.968;10.124;2023-12-07T12:52:37;17.63;;;9.90;;
71639;SDS011;60912;48.968;10.124;2023-12-07T12:55:10;20.30;;;11.83;;
71639;SDS011;60912;48.968;10.124;2023-12-07T12:57:36;19.17;;;12.35;;
71639;SDS011;60912;48.968;10.124;2023-12-07T13:00:03;20.05;;;11.15;;
71639;SDS011;60912;48.968;10.124;2023-12-07T13:02:29;28.33;;;12.38;;
71639;SDS011;60912;48.968;10.124;2023-12-07T13:04:54;20.00;;;11.17;;
71639;SDS011;60912;48.968;10.124;2023-12-07T13:07:21;22.20;;;13.60;;
71639;SDS011;60912;48.968;10.124;2023-12-07T13:09:49;25.52;;;12.45;;
71639;SDS011;60912;48.968;10.124;2023-12-07T13:12:14;18.73;;;12.07;;
71639;SDS011;60912;48.968;10.124;2023-12-07T13:14:40;18.47;;;10.97;;
71639;SDS011;60912;48.968;10.124;2023-12-07T13:17:05;20.70;;;11.90;;
71639;SDS011;60912;48.968;10.124;2023-12-07T13:19:32;18.58;;;12.65;;
71639;SDS011;60912;48.968;10.124;2023-12-07T13:21:58;19.73;;;12.60;;
71639;SDS011;60912;48.968;10.124;2023-12-07T13:24:24;21.80;;;14.47;;
71639;SDS011;60912;48.968;10.124;2023-12-07T13:26:49;21.60;;;12.13;;
71639;SDS011;60912;48.968;10.124;2023-12-07T13:29:14;16.87;;;10.83;;
71639;SDS011;60912;48.968;10.124;2023-12-07T13:31:40;21.60;;;10.90;;
71639;SDS011;60912;48.968;10.124;2023-12-07T13:34:05;20.13;;;12.43;;
71639;SDS011;60912;48.968;10.124;2023-12-07T13:36:31;21.02;;;12.30;;
71639;SDS011;60912;48.968;10.124;2023-12-07T13:38:58;19.37;;;11.80;;
71639;SDS011;60912;48.968;10.124;2023-12-07T13:41:24;19.70;;;11.27;;
71639;SDS011;60912;48.968;10.124;2023-12-07T13:43:49;17.10;;;10.63;;
71639;SDS011;60912;48.968;10.124;2023-12-07T13:46:15;21.17;;;14.00;;
71639;SDS011;60912;48.968;10.124;2023-12-07T13:48:42;23.60;;;13.30;;
71639;SDS011;60912;48.968;10.124;2023-12-07T13:51:07;21.60;;;13.10;;
71639;SDS011;60912;48.968;10.124;2023-12-07T13:53:33;21.47;;;12.10;;
71639;SDS011;60912;48.968;10.124;2023-12-07T13:55:59;21.10;;;12.00;;
71639;SDS011;60912;48.968;10.124;2023-12-07T13:58:25;21.25;;;12.15;;
71639;SDS011;60912;48.968;10.124;2023-12-07T14:00:50;19.63;;;11.73;;
71639;SDS011;60912;48.968;10.124;2023-12-07T14:03:15;20.63;;;11.50;;
71639;SDS011;60912;48.968;10.124;2023-12-07T14:05:41;22.00;;;12.47;;
71639;SDS011;60912;48.968;10.124;2023-12-07T14:08:06;22.17;;;12.93;;
71639;SDS011;60912;48.968;10.124;2023-12-07T14:10:33;22.05;;;12.45;;
71639;SDS011;60912;48.968;10.124;2023-12-07T14:12:59;23.83;;;13.05;;
71639;SDS011;60912;48.968;10.124;2023-12-07T14:15:25;25.83;;;13.03;;
71639;SDS011;60912;48.968;10.124;2023-12-07T14:17:50;22.13;;;13.80;;
71639;SDS011;60912;48.968;10.124;2023-12-07T14:20:16;27.90;;;14.53;;
71639;SDS011;60912;48.968;10.124;2023-12-07T14:22:41;23.60;;;15.45;;